Time;durP1;ratioP1;P1;durP2;ratioP2;P2;SDS_P1;SDS_P2;PMS_P1;PMS_P2;Temp;Humidity;BMP_temperature;BMP_pressure;BME280_temperature;BME280_humidity;BME280_pressure;Samples;Min_cycle;Max_cycle;Signal;HPM_P1;HPM_P2
2022/11/23 00:01:29;;;;;;;9.97;8.30;;;9.40;99.90;;;;;;5055690;28;20461;-72
2022/11/23 00:03:58;;;;;;;10.30;9.30;;;9.40;99.90;;;;;;5056230;28;20469;-70
2022/11/23 00:06:26;;;;;;;8.60;8.00;;;9.40;99.90;;;;;;5054986;28;20828;-71
2022/11/23 00:08:53;;;;;;;8.97;8.27;;;9.40;99.90;;;;;;5062015;28;20462;-72
2022/11/23 00:11:21;;;;;;;9.53;8.63;;;9.40;99.90;;;;;;5057572;28;20477;-69
2022/11/23 00:13:49;;;;;;;9.40;8.60;;;9.30;99.90;;;;;;5055347;28;20456;-70
2022/11/23 00:16:19;;;;;;;9.30;8.47;;;9.30;99.90;;;;;;5057315;28;20470;-69
2022/11/23 00:18:46;;;;;;;9.23;8.43;;;9.40;99.90;;;;;;5057200;28;20466;-72
2022/11/23 00:21:15;;;;;;;9.57;8.77;;;9.40;99.90;;;;;;5058285;28;20463;-69
2022/11/23 00:23:43;;;;;;;9.27;8.57;;;9.30;99.90;;;;;;5058846;28;20957;-70
2022/11/23 00:26:10;;;;;;;8.00;7.50;;;9.30;99.90;;;;;;5050585;28;20483;-70
2022/11/23 00:28:39;;;;;;;14.43;9.30;;;9.40;99.90;;;;;;5058600;28;20544;-72
2022/11/23 00:31:07;;;;;;;11.93;8.60;;;9.40;99.90;;;;;;5057650;28;20498;-72
2022/11/23 00:33:35;;;;;;;9.30;8.60;;;9.30;99.90;;;;;;5055555;28;20549;-69
2022/11/23 00:36:04;;;;;;;8.63;7.80;;;9.40;99.90;;;;;;5056733;28;20494;-70
2022/11/23 00:38:32;;;;;;;8.63;8.07;;;9.40;99.90;;;;;;5058607;28;20462;-71
2022/11/23 00:41:01;;;;;;;9.83;8.90;;;9.40;99.90;;;;;;5051597;28;21461;-70
2022/11/23 00:43:28;;;;;;;9.17;8.40;;;9.40;99.90;;;;;;5056366;28;20490;-69
2022/11/23 00:46:06;;;;;;;8.70;8.20;;;9.40;99.90;;;;;;5058090;28;20466;-68
2022/11/23 00:48:36;;;;;;;9.30;8.50;;;9.50;99.90;;;;;;5059644;28;20466;-68
2022/11/23 00:51:04;;;;;;;20.47;8.20;;;9.40;99.90;;;;;;5052568;28;20495;-70
2022/11/23 00:53:30;;;;;;;8.93;8.20;;;9.40;99.90;;;;;;5058461;28;20472;-68
2022/11/23 00:55:58;;;;;;;10.20;8.17;;;9.50;99.90;;;;;;5055576;28;20465;-72
2022/11/23 00:58:25;;;;;;;8.63;7.93;;;9.40;99.90;;;;;;5060791;28;20929;-71
2022/11/23 01:01:01;;;;;;;9.27;8.40;;;9.40;99.90;;;;;;5062133;28;20466;-71
2022/11/23 01:03:29;;;;;;;12.03;8.90;;;9.40;99.90;;;;;;5055145;28;20472;-70
2022/11/23 01:06:02;;;;;;;9.60;8.67;;;9.40;99.90;;;;;;5054908;28;20954;-69
2022/11/23 01:08:29;;;;;;;9.73;8.57;;;9.40;99.90;;;;;;5060886;28;20470;-70
2022/11/23 01:11:00;;;;;;;9.67;8.77;;;9.40;99.90;;;;;;5060618;28;20577;-69
2022/11/23 01:13:27;;;;;;;11.80;8.87;;;9.40;99.90;;;;;;5056190;28;20515;-69
2022/11/23 01:15:54;;;;;;;11.60;8.87;;;9.40;99.90;;;;;;5059366;28;20494;-69
2022/11/23 01:18:21;;;;;;;16.60;9.40;;;9.40;99.90;;;;;;5055029;28;20646;-69
2022/11/23 01:20:48;;;;;;;9.17;8.47;;;9.30;99.90;;;;;;5063428;28;20465;-69
2022/11/23 01:23:16;;;;;;;12.83;8.90;;;9.50;99.90;;;;;;5057444;28;20471;-70
2022/11/23 01:25:43;;;;;;;12.03;9.63;;;9.50;99.90;;;;;;5056630;28;20459;-69
2022/11/23 01:28:10;;;;;;;9.00;8.40;;;9.40;99.90;;;;;;5058595;28;21035;-72
2022/11/23 01:30:37;;;;;;;13.40;9.00;;;9.50;99.90;;;;;;5054847;28;20488;-71
2022/11/23 01:33:04;;;;;;;9.53;8.83;;;9.50;99.90;;;;;;5058825;28;20865;-72
2022/11/23 01:35:31;;;;;;;17.20;9.10;;;9.40;99.90;;;;;;5060127;28;20469;-69
2022/11/23 01:37:59;;;;;;;9.70;9.00;;;9.50;99.90;;;;;;5053372;28;20455;-72
2022/11/23 01:40:27;;;;;;;13.33;9.30;;;9.50;99.90;;;;;;5063163;28;20462;-71
2022/11/23 01:42:56;;;;;;;13.27;9.00;;;9.60;99.90;;;;;;5065632;28;20518;-72
2022/11/23 01:45:37;;;;;;;11.77;8.67;;;9.50;99.90;;;;;;5058818;28;20476;-70
2022/11/23 01:48:09;;;;;;;10.10;9.30;;;9.50;99.90;;;;;;5062342;28;20842;-70
2022/11/23 01:50:36;;;;;;;10.30;9.10;;;9.50;99.90;;;;;;5057344;28;20576;-72
2022/11/23 01:53:03;;;;;;;10.93;9.47;;;9.60;99.90;;;;;;5051720;28;20954;-72
2022/11/23 01:55:32;;;;;;;10.67;9.57;;;9.60;99.90;;;;;;5058779;28;20463;-72
2022/11/23 01:58:00;;;;;;;10.83;9.27;;;9.60;99.90;;;;;;5063064;28;20481;-69
2022/11/23 02:00:28;;;;;;;10.07;9.13;;;9.50;99.90;;;;;;5061101;28;20471;-71
2022/11/23 02:02:57;;;;;;;9.77;8.97;;;9.50;99.90;;;;;;5056649;28;20458;-71
2022/11/23 02:05:29;;;;;;;10.30;9.23;;;9.50;99.90;;;;;;5058024;28;20509;-69
2022/11/23 02:07:59;;;;;;;9.83;9.23;;;9.50;99.90;;;;;;5054560;28;20480;-69
2022/11/23 02:10:26;;;;;;;11.67;9.40;;;9.60;99.90;;;;;;5064134;28;20535;-72
2022/11/23 02:12:55;;;;;;;10.60;9.57;;;9.60;99.90;;;;;;5060633;28;20628;-70
2022/11/23 02:15:22;;;;;;;11.93;9.50;;;9.60;99.90;;;;;;5061592;28;20470;-71
2022/11/23 02:17:49;;;;;;;13.20;9.80;;;9.50;99.90;;;;;;5056632;28;20613;-70
2022/11/23 02:20:18;;;;;;;9.40;8.90;;;9.60;99.90;;;;;;5054308;28;20988;-70
2022/11/23 02:22:52;;;;;;;10.30;9.50;;;9.60;99.90;;;;;;5063672;28;20864;-70
2022/11/23 02:25:25;;;;;;;10.53;9.60;;;9.60;99.90;;;;;;5055681;28;20467;-71
2022/11/23 02:27:54;;;;;;;10.73;8.87;;;9.60;99.90;;;;;;5056667;28;21044;-70
2022/11/23 02:30:21;;;;;;;10.07;9.10;;;9.60;99.90;;;;;;5060437;28;20825;-70
2022/11/23 02:32:47;;;;;;;14.23;9.57;;;9.60;99.90;;;;;;5055219;28;20968;-71
2022/11/23 02:35:14;;;;;;;10.67;9.00;;;9.60;99.90;;;;;;5060655;28;20787;-69
2022/11/23 02:37:43;;;;;;;11.17;9.43;;;9.50;99.90;;;;;;5053881;28;21110;-69
2022/11/23 02:40:21;;;;;;;14.10;9.50;;;9.40;99.90;;;;;;5063185;28;20474;-69
2022/11/23 02:42:49;;;;;;;10.67;9.60;;;9.50;99.90;;;;;;5060937;28;20475;-69
2022/11/23 02:45:24;;;;;;;10.90;9.30;;;9.50;99.90;;;;;;5064145;28;20485;-69
2022/11/23 02:47:51;;;;;;;15.43;9.20;;;9.50;99.90;;;;;;5057779;28;20991;-68
2022/11/23 02:50:18;;;;;;;9.80;9.20;;;9.50;99.90;;;;;;5052161;28;20832;-69
2022/11/23 02:52:45;;;;;;;9.93;9.20;;;9.60;99.90;;;;;;5054866;28;20463;-69
2022/11/23 02:55:12;;;;;;;10.50;9.67;;;9.60;99.90;;;;;;5059340;28;20467;-69
2022/11/23 02:57:39;;;;;;;11.00;9.90;;;9.60;99.90;;;;;;5061584;28;20470;-69
2022/11/23 03:00:07;;;;;;;10.70;9.60;;;9.60;99.90;;;;;;5055552;28;20514;-70
2022/11/23 03:02:36;;;;;;;10.80;10.07;;;9.60;99.90;;;;;;5056354;28;20835;-69
2022/11/23 03:05:02;;;;;;;13.23;10.97;;;9.60;99.90;;;;;;5052789;28;20497;-69
2022/11/23 03:07:30;;;;;;;11.90;10.30;;;9.60;99.90;;;;;;5054189;28;20467;-69
2022/11/23 03:09:57;;;;;;;13.57;10.47;;;9.60;99.90;;;;;;5061535;28;20486;-72
2022/11/23 03:12:24;;;;;;;11.40;10.40;;;9.70;99.90;;;;;;5063146;28;20469;-69
2022/11/23 03:14:50;;;;;;;10.93;9.90;;;9.60;99.90;;;;;;5057223;28;20495;-70
2022/11/23 03:17:17;;;;;;;11.67;10.47;;;9.60;99.90;;;;;;5057459;28;20463;-71
2022/11/23 03:19:46;;;;;;;10.70;9.80;;;9.70;99.90;;;;;;5060849;28;20478;-72
2022/11/23 03:22:13;;;;;;;15.47;12.03;;;9.60;99.90;;;;;;5055900;28;20473;-71
2022/11/23 03:24:40;;;;;;;14.50;10.67;;;9.60;99.90;;;;;;5061164;28;20462;-69
2022/11/23 03:27:07;;;;;;;13.40;10.73;;;9.60;99.90;;;;;;5059230;28;20550;-69
2022/11/23 03:29:34;;;;;;;16.90;11.13;;;9.60;99.90;;;;;;5063042;28;20542;-70
2022/11/23 03:32:01;;;;;;;10.53;9.70;;;9.60;99.90;;;;;;5061830;28;20509;-71
2022/11/23 03:34:28;;;;;;;13.63;10.50;;;9.50;99.90;;;;;;5052705;28;20471;-71
2022/11/23 03:36:57;;;;;;;13.77;10.57;;;9.50;99.90;;;;;;5056666;28;20858;-70
2022/11/23 03:39:23;;;;;;;11.37;10.37;;;9.50;99.90;;;;;;5055946;28;20461;-70
2022/11/23 03:41:50;;;;;;;12.70;10.33;;;9.50;99.90;;;;;;5058042;28;20467;-69
2022/11/23 03:44:17;;;;;;;13.93;10.93;;;9.50;99.90;;;;;;5056841;28;20486;-70
2022/11/23 03:46:44;;;;;;;17.57;11.17;;;9.50;99.90;;;;;;5057794;28;20814;-67
2022/11/23 03:49:12;;;;;;;10.33;9.50;;;9.40;99.90;;;;;;5057818;28;20513;-70
2022/11/23 03:51:40;;;;;;;11.10;10.10;;;9.40;99.90;;;;;;5062084;28;20482;-71
2022/11/23 03:54:08;;;;;;;12.23;11.10;;;9.40;99.90;;;;;;5059664;28;20549;-71
2022/11/23 03:56:35;;;;;;;18.03;11.30;;;9.50;99.90;;;;;;5059225;28;20468;-70
2022/11/23 03:59:02;;;;;;;14.40;12.90;;;9.40;99.90;;;;;;5060895;28;21173;-72
2022/11/23 04:01:29;;;;;;;15.43;10.57;;;9.40;99.90;;;;;;5057453;28;20466;-70
2022/11/23 04:03:56;;;;;;;11.50;10.37;;;9.50;99.90;;;;;;5056683;28;20475;-71
2022/11/23 04:06:23;;;;;;;16.57;11.37;;;9.50;99.90;;;;;;5051236;28;20486;-68
2022/11/23 04:08:51;;;;;;;12.47;10.80;;;9.50;99.90;;;;;;5060363;28;20461;-69
2022/11/23 04:11:19;;;;;;;12.67;11.37;;;9.50;99.90;;;;;;5062553;28;20504;-69
2022/11/23 04:13:46;;;;;;;12.40;11.00;;;9.50;99.90;;;;;;5053549;28;20911;-69
2022/11/23 04:16:13;;;;;;;13.10;11.50;;;9.50;99.90;;;;;;5058530;28;21138;-68
2022/11/23 04:18:39;;;;;;;20.10;11.93;;;9.60;99.90;;;;;;5054502;28;20467;-69
2022/11/23 04:21:07;;;;;;;12.47;11.50;;;9.60;99.90;;;;;;5063699;28;20466;-68
2022/11/23 04:23:34;;;;;;;14.07;11.13;;;9.60;99.90;;;;;;5062540;28;20498;-68
2022/11/23 04:26:01;;;;;;;11.37;10.47;;;9.60;99.90;;;;;;5056867;28;20466;-68
2022/11/23 04:28:29;;;;;;;15.80;11.13;;;9.50;99.90;;;;;;5057230;28;20474;-68
2022/11/23 04:30:57;;;;;;;11.80;10.60;;;9.50;99.90;;;;;;5056800;28;21020;-69
2022/11/23 04:33:25;;;;;;;13.40;11.20;;;9.50;99.90;;;;;;5060223;28;20471;-68
2022/11/23 04:35:52;;;;;;;13.77;11.00;;;9.60;99.90;;;;;;5059396;28;21008;-68
2022/11/23 04:38:19;;;;;;;13.70;11.37;;;9.60;99.90;;;;;;5059934;28;20471;-69
2022/11/23 04:40:48;;;;;;;11.30;10.33;;;9.50;99.90;;;;;;5052569;28;20456;-68
2022/11/23 04:43:16;;;;;;;11.73;10.63;;;9.50;99.90;;;;;;5056061;28;20532;-69
2022/11/23 04:45:45;;;;;;;14.70;12.00;;;9.50;99.90;;;;;;5058806;28;20888;-68
2022/11/23 04:48:12;;;;;;;13.60;12.47;;;9.60;99.90;;;;;;5061131;28;20456;-69
2022/11/23 04:50:40;;;;;;;14.30;13.30;;;9.60;99.90;;;;;;5061734;28;20491;-68
2022/11/23 04:53:08;;;;;;;15.60;13.83;;;9.40;99.90;;;;;;5060638;28;20497;-68
2022/11/23 04:55:35;;;;;;;14.40;13.30;;;9.30;99.90;;;;;;5060445;28;20507;-68
2022/11/23 04:58:02;;;;;;;14.50;12.90;;;9.20;99.90;;;;;;5063717;28;21044;-68
2022/11/23 05:00:29;;;;;;;15.60;14.07;;;9.10;99.90;;;;;;5053891;28;20466;-69
2022/11/23 05:03:00;;;;;;;13.97;12.93;;;9.10;99.90;;;;;;5057394;28;20523;-71
2022/11/23 05:05:28;;;;;;;14.00;12.83;;;9.00;99.90;;;;;;5063836;28;20514;-70
2022/11/23 05:07:56;;;;;;;13.23;12.20;;;9.00;99.90;;;;;;5058199;28;20459;-69
2022/11/23 05:10:25;;;;;;;14.10;12.63;;;9.00;99.90;;;;;;5062453;28;20465;-69
2022/11/23 05:12:51;;;;;;;14.70;13.27;;;9.00;99.90;;;;;;5063882;28;20965;-69
2022/11/23 05:15:18;;;;;;;13.37;12.50;;;9.00;99.90;;;;;;5066822;28;20842;-69
2022/11/23 05:17:45;;;;;;;14.23;12.60;;;9.00;99.90;;;;;;5059424;28;20552;-71
2022/11/23 05:20:13;;;;;;;13.07;11.83;;;9.00;99.90;;;;;;5059509;28;20941;-71
2022/11/23 05:22:40;;;;;;;14.47;12.43;;;9.00;99.90;;;;;;5059107;28;20475;-70
2022/11/23 05:25:08;;;;;;;12.97;11.67;;;9.00;99.90;;;;;;5064527;28;20458;-69
2022/11/23 05:27:35;;;;;;;14.80;12.03;;;8.90;99.90;;;;;;5062792;28;20482;-71
2022/11/23 05:30:03;;;;;;;12.30;11.20;;;9.00;99.90;;;;;;5064773;28;20461;-71
2022/11/23 05:32:30;;;;;;;12.80;11.50;;;9.00;99.90;;;;;;5064116;28;20497;-68
2022/11/23 05:34:57;;;;;;;12.10;10.90;;;9.00;99.90;;;;;;5060912;28;20453;-68
2022/11/23 05:37:25;;;;;;;11.00;9.90;;;9.00;99.90;;;;;;5055568;28;20506;-69
2022/11/23 05:39:52;;;;;;;13.47;10.23;;;8.90;99.90;;;;;;5064137;28;20458;-69
2022/11/23 05:42:19;;;;;;;13.00;10.60;;;9.00;99.90;;;;;;5059369;28;20471;-68
2022/11/23 05:44:46;;;;;;;11.20;10.10;;;9.00;99.90;;;;;;5059557;28;20482;-68
2022/11/23 05:47:13;;;;;;;11.80;10.50;;;9.00;99.90;;;;;;5065354;28;20469;-68
2022/11/23 05:49:39;;;;;;;18.77;11.60;;;9.00;99.90;;;;;;5057687;28;20477;-68
2022/11/23 05:52:06;;;;;;;14.73;10.80;;;8.90;99.90;;;;;;5062446;28;21048;-69
2022/11/23 05:54:35;;;;;;;11.80;10.70;;;8.90;99.90;;;;;;5061148;28;20469;-69
2022/11/23 05:57:02;;;;;;;15.83;10.70;;;8.90;99.90;;;;;;5061419;28;20474;-68
2022/11/23 05:59:29;;;;;;;17.30;10.40;;;8.70;99.90;;;;;;5059381;28;20545;-69
2022/11/23 06:01:57;;;;;;;12.20;10.07;;;8.70;99.90;;;;;;5062689;28;20614;-68
2022/11/23 06:04:24;;;;;;;10.70;10.00;;;8.60;99.90;;;;;;5059610;28;20863;-69
2022/11/23 06:06:53;;;;;;;17.70;11.63;;;8.60;99.90;;;;;;5060974;28;20464;-68
2022/11/23 06:09:20;;;;;;;12.20;10.87;;;8.70;99.90;;;;;;5057350;28;20557;-68
2022/11/23 06:11:49;;;;;;;19.47;10.23;;;8.70;99.90;;;;;;5061295;28;20490;-68
2022/11/23 06:14:16;;;;;;;15.93;11.60;;;8.70;99.90;;;;;;5055785;28;20455;-69
2022/11/23 06:16:43;;;;;;;13.17;11.70;;;8.80;99.90;;;;;;5064999;28;20464;-68
2022/11/23 06:19:09;;;;;;;11.97;10.97;;;8.80;99.90;;;;;;5063658;28;20473;-68
2022/11/23 06:21:36;;;;;;;12.80;11.60;;;8.80;99.90;;;;;;5059892;28;20512;-69
2022/11/23 06:24:03;;;;;;;12.00;10.33;;;8.90;99.90;;;;;;5053813;28;20458;-69
2022/11/23 06:26:32;;;;;;;11.80;10.60;;;8.80;99.90;;;;;;5062114;28;21024;-69
2022/11/23 06:29:00;;;;;;;15.70;10.47;;;8.80;99.90;;;;;;5062608;28;20478;-69
2022/11/23 06:31:26;;;;;;;15.23;11.20;;;8.70;99.90;;;;;;5062260;28;20718;-69
2022/11/23 06:33:53;;;;;;;15.33;10.80;;;8.70;99.90;;;;;;5061369;28;20463;-69
2022/11/23 06:36:20;;;;;;;21.03;11.23;;;8.60;99.90;;;;;;5059815;28;20501;-69
2022/11/23 06:38:47;;;;;;;12.50;11.07;;;8.60;99.90;;;;;;5059392;28;21225;-69
2022/11/23 06:41:15;;;;;;;18.17;12.13;;;8.60;99.90;;;;;;5059517;28;20474;-69
2022/11/23 06:43:42;;;;;;;20.00;12.30;;;8.60;99.90;;;;;;5061329;28;20791;-68
2022/11/23 06:46:11;;;;;;;14.30;12.83;;;8.60;99.90;;;;;;5064214;28;20553;-69
2022/11/23 06:48:38;;;;;;;17.47;14.10;;;8.60;99.90;;;;;;5066149;28;20844;-69
2022/11/23 06:51:05;;;;;;;23.77;13.27;;;8.60;99.90;;;;;;5062085;28;20855;-69
2022/11/23 06:53:32;;;;;;;13.70;12.00;;;8.60;99.90;;;;;;5062300;28;20469;-68
2022/11/23 06:55:59;;;;;;;15.23;13.33;;;8.60;99.90;;;;;;5058384;28;20474;-69
2022/11/23 06:58:27;;;;;;;14.90;13.30;;;8.70;99.90;;;;;;5063675;28;20483;-69
2022/11/23 07:00:54;;;;;;;18.60;12.60;;;8.60;99.90;;;;;;5063482;28;20474;-69
2022/11/23 07:03:23;;;;;;;15.37;12.50;;;8.60;99.90;;;;;;5062731;28;20858;-68
2022/11/23 07:05:50;;;;;;;15.87;14.33;;;8.60;99.90;;;;;;5062696;28;21005;-69
2022/11/23 07:08:18;;;;;;;17.37;13.70;;;8.50;99.90;;;;;;5057792;28;20467;-69
2022/11/23 07:10:44;;;;;;;17.37;13.80;;;8.50;99.90;;;;;;5058932;28;20883;-70
2022/11/23 07:13:13;;;;;;;15.93;12.70;;;8.50;99.90;;;;;;5061407;28;20497;-69
2022/11/23 07:15:40;;;;;;;13.60;12.37;;;8.40;99.90;;;;;;5060685;28;20474;-69
2022/11/23 07:18:09;;;;;;;14.60;13.13;;;8.30;99.90;;;;;;5061004;28;20972;-69
2022/11/23 07:20:38;;;;;;;21.07;12.70;;;8.20;99.90;;;;;;5055648;28;20897;-69
2022/11/23 07:23:06;;;;;;;13.57;12.30;;;8.20;99.90;;;;;;5056076;28;20581;-69
2022/11/23 07:25:37;;;;;;;13.87;12.50;;;8.10;99.90;;;;;;5053573;28;20452;-68
2022/11/23 07:28:05;;;;;;;14.37;13.00;;;8.10;99.90;;;;;;5059822;28;20479;-69
2022/11/23 07:30:34;;;;;;;14.13;12.93;;;8.00;99.90;;;;;;5057453;28;20474;-69
2022/11/23 07:33:01;;;;;;;14.13;12.57;;;7.90;99.90;;;;;;5057955;28;20966;-69
2022/11/23 07:35:28;;;;;;;14.90;12.70;;;7.80;99.90;;;;;;5053709;28;20457;-69
2022/11/23 07:37:56;;;;;;;13.80;12.70;;;7.60;99.90;;;;;;5061703;28;20516;-69
2022/11/23 07:40:23;;;;;;;14.03;12.60;;;7.50;99.90;;;;;;5059323;28;20849;-69
2022/11/23 07:42:49;;;;;;;13.70;12.40;;;7.40;99.90;;;;;;5061548;28;20957;-68
2022/11/23 07:45:16;;;;;;;13.83;12.50;;;7.40;99.90;;;;;;5062054;28;20799;-69
2022/11/23 07:47:43;;;;;;;15.83;13.63;;;7.40;99.90;;;;;;5056285;28;20463;-69
2022/11/23 07:50:13;;;;;;;13.90;12.47;;;7.30;99.90;;;;;;5054273;28;20459;-69
2022/11/23 07:52:40;;;;;;;17.13;13.60;;;7.40;99.90;;;;;;5052915;28;20489;-69
2022/11/23 07:55:09;;;;;;;14.37;12.10;;;7.40;99.90;;;;;;5052490;28;20474;-69
2022/11/23 07:57:36;;;;;;;13.90;12.47;;;7.40;99.90;;;;;;5058768;28;20984;-70
2022/11/23 08:00:05;;;;;;;17.53;12.10;;;7.40;99.90;;;;;;5064434;28;20508;-69
2022/11/23 08:02:32;;;;;;;13.23;10.83;;;7.40;99.90;;;;;;5057735;28;20462;-69
2022/11/23 08:04:59;;;;;;;15.97;12.80;;;7.40;99.90;;;;;;5061356;28;20481;-69
2022/11/23 08:07:27;;;;;;;21.27;11.73;;;7.50;99.90;;;;;;5057692;28;20459;-69
2022/11/23 08:09:54;;;;;;;13.63;11.60;;;7.50;99.90;;;;;;5055615;28;20462;-69
2022/11/23 08:12:23;;;;;;;14.50;12.80;;;7.50;99.90;;;;;;5060996;28;20874;-69
2022/11/23 08:14:50;;;;;;;13.03;11.50;;;7.60;99.90;;;;;;5062248;28;20490;-69
2022/11/23 08:17:17;;;;;;;12.57;11.57;;;7.60;99.90;;;;;;5059479;28;20489;-69
2022/11/23 08:19:44;;;;;;;16.60;12.13;;;7.60;99.90;;;;;;5055203;28;20980;-68
2022/11/23 08:22:12;;;;;;;12.83;11.90;;;7.60;99.90;;;;;;5058819;28;20757;-69
2022/11/23 08:24:39;;;;;;;12.77;11.67;;;7.80;99.90;;;;;;5058924;28;20912;-68
2022/11/23 08:27:05;;;;;;;13.03;11.30;;;7.80;99.90;;;;;;5062710;28;20466;-69
2022/11/23 08:29:33;;;;;;;15.40;12.67;;;7.90;99.90;;;;;;5059083;28;20466;-71
2022/11/23 08:32:01;;;;;;;14.07;12.63;;;7.90;99.90;;;;;;5060780;28;21148;-68
2022/11/23 08:34:27;;;;;;;19.03;12.30;;;7.90;99.90;;;;;;5060343;28;20984;-69
2022/11/23 08:36:55;;;;;;;13.30;12.20;;;8.00;99.90;;;;;;5060017;28;20464;-71
2022/11/23 08:39:22;;;;;;;14.97;12.30;;;8.00;99.90;;;;;;5060327;28;20459;-69
2022/11/23 08:41:49;;;;;;;18.70;14.63;;;8.00;99.90;;;;;;5059150;28;20476;-71
2022/11/23 08:44:16;;;;;;;23.97;13.00;;;8.10;99.90;;;;;;5056167;28;20490;-69
2022/11/23 08:46:44;;;;;;;17.70;12.50;;;8.10;99.90;;;;;;5056123;28;20820;-69
2022/11/23 08:49:12;;;;;;;15.20;13.87;;;8.10;99.90;;;;;;5051325;28;20989;-69
2022/11/23 08:51:39;;;;;;;15.60;14.07;;;8.20;99.90;;;;;;5056570;28;20470;-69
2022/11/23 08:54:06;;;;;;;16.10;14.40;;;8.20;99.90;;;;;;5056388;28;20459;-69
2022/11/23 08:56:34;;;;;;;15.10;13.77;;;8.20;99.90;;;;;;5063192;28;20832;-69
2022/11/23 08:59:00;;;;;;;14.80;13.60;;;8.20;99.90;;;;;;5056012;28;20466;-70
2022/11/23 09:01:28;;;;;;;14.90;13.80;;;8.30;99.90;;;;;;5060201;28;20984;-72
2022/11/23 09:03:56;;;;;;;14.80;13.47;;;8.30;99.90;;;;;;5053530;28;20462;-68
2022/11/23 09:06:27;;;;;;;14.57;13.47;;;8.40;99.90;;;;;;5059454;28;20519;-69
2022/11/23 09:08:54;;;;;;;16.47;15.03;;;8.50;99.90;;;;;;5061229;28;20459;-72
2022/11/23 09:11:22;;;;;;;16.27;14.57;;;8.50;99.90;;;;;;5059030;28;20844;-69
2022/11/23 09:13:48;;;;;;;17.50;14.07;;;8.50;99.90;;;;;;5060611;28;20497;-69
2022/11/23 09:16:15;;;;;;;15.00;13.30;;;8.50;99.90;;;;;;5059132;28;20478;-69
2022/11/23 09:18:42;;;;;;;15.43;14.03;;;8.50;99.90;;;;;;5058104;28;20466;-69
2022/11/23 09:21:11;;;;;;;16.63;14.20;;;8.60;99.90;;;;;;5040599;28;20825;-70
2022/11/23 09:23:38;;;;;;;24.50;15.20;;;8.70;99.90;;;;;;5044523;28;20467;-69
2022/11/23 09:26:05;;;;;;;21.73;13.63;;;8.70;99.90;;;;;;5054750;28;20470;-69
2022/11/23 09:28:32;;;;;;;17.60;14.03;;;8.70;99.90;;;;;;5060059;28;20466;-69
2022/11/23 09:31:02;;;;;;;15.57;13.90;;;8.70;99.90;;;;;;5058045;28;20886;-71
2022/11/23 09:33:29;;;;;;;15.60;14.60;;;8.80;99.90;;;;;;5056724;28;20525;-70
2022/11/23 09:35:58;;;;;;;18.20;14.70;;;8.90;99.90;;;;;;5062945;28;20465;-69
2022/11/23 09:38:26;;;;;;;19.27;14.67;;;9.00;99.90;;;;;;5057804;28;20459;-69
2022/11/23 09:41:03;;;;;;;16.80;15.13;;;9.00;99.90;;;;;;5061594;28;20459;-69
2022/11/23 09:43:46;;;;;;;15.50;13.90;;;9.00;99.90;;;;;;5056474;28;20505;-71
2022/11/23 09:46:21;;;;;;;16.93;15.23;;;9.00;99.90;;;;;;5059604;28;20466;-69
2022/11/23 09:49:03;;;;;;;17.73;14.77;;;9.20;99.90;;;;;;5060469;28;20497;-70
2022/11/23 09:51:30;;;;;;;32.23;16.93;;;9.20;99.90;;;;;;5060912;28;20556;-70
2022/11/23 09:54:02;;;;;;;15.80;14.37;;;9.30;99.90;;;;;;5063122;28;20497;-72
2022/11/23 09:56:33;;;;;;;18.20;14.40;;;9.50;99.90;;;;;;5060571;28;20567;-69
2022/11/23 09:59:03;;;;;;;29.10;15.47;;;9.60;99.90;;;;;;5061226;28;20856;-70
2022/11/23 10:01:30;;;;;;;16.27;14.87;;;9.60;99.90;;;;;;5061718;28;20459;-71
2022/11/23 10:03:58;;;;;;;16.47;15.07;;;9.70;99.90;;;;;;5058596;28;20454;-70
2022/11/23 10:06:27;;;;;;;16.60;15.40;;;9.60;99.90;;;;;;5060162;28;20978;-69
2022/11/23 10:09:06;;;;;;;16.67;15.10;;;9.60;99.90;;;;;;5062590;28;20466;-69
2022/11/23 10:11:52;;;;;;;16.57;15.07;;;9.60;99.90;;;;;;5060661;28;20459;-71
2022/11/23 10:14:34;;;;;;;17.90;16.20;;;9.70;99.90;;;;;;5060831;28;20463;-69
2022/11/23 10:17:10;;;;;;;22.13;15.47;;;9.80;99.90;;;;;;5059914;28;20455;-69
2022/11/23 10:19:56;;;;;;;17.00;15.30;;;9.80;99.90;;;;;;5059085;28;20471;-70
2022/11/23 10:22:31;;;;;;;23.70;17.23;;;9.80;99.90;;;;;;5056375;28;20462;-70
2022/11/23 10:25:02;;;;;;;16.67;15.20;;;9.90;99.90;;;;;;5060751;28;20503;-70
2022/11/23 10:27:31;;;;;;;17.00;15.60;;;9.90;99.90;;;;;;5060586;28;20463;-71
2022/11/23 10:30:00;;;;;;;19.33;17.37;;;9.90;99.90;;;;;;5062275;28;20576;-69
2022/11/23 10:32:32;;;;;;;18.10;16.27;;;9.90;99.90;;;;;;5057943;28;20582;-69
2022/11/23 10:35:05;;;;;;;16.97;15.37;;;9.90;99.90;;;;;;5065316;28;20881;-70
2022/11/23 10:37:32;;;;;;;17.40;15.80;;;10.00;99.90;;;;;;5062291;28;20481;-71
2022/11/23 10:40:00;;;;;;;16.77;15.20;;;10.00;99.90;;;;;;5061441;28;20463;-70
2022/11/23 10:42:32;;;;;;;18.47;16.53;;;10.10;99.90;;;;;;5060779;28;20546;-71
2022/11/23 10:45:00;;;;;;;19.83;15.40;;;10.20;99.90;;;;;;5060749;28;20485;-70
2022/11/23 10:47:36;;;;;;;18.33;16.73;;;10.20;99.90;;;;;;5063334;28;20459;-71
2022/11/23 10:50:18;;;;;;;22.90;19.20;;;10.50;99.90;;;;;;5061344;28;20442;-72
2022/11/23 10:52:52;;;;;;;16.67;15.40;;;11.10;99.90;;;;;;5058966;28;21019;-69
2022/11/23 10:55:26;;;;;;;17.77;16.17;;;11.80;99.90;;;;;;5062122;28;20459;-72
2022/11/23 10:57:52;;;;;;;16.83;15.33;;;12.30;99.90;;;;;;5056932;28;20470;-70
2022/11/23 11:00:21;;;;;;;17.10;16.00;;;12.50;99.90;;;;;;5056092;28;20463;-72
2022/11/23 11:02:50;;;;;;;23.10;16.20;;;13.10;99.90;;;;;;5057955;28;20490;-70
2022/11/23 11:05:34;;;;;;;21.40;17.33;;;13.10;99.90;;;;;;5055662;28;20490;-70
2022/11/23 11:08:02;;;;;;;16.87;15.73;;;13.20;99.90;;;;;;5047493;28;20462;-70
2022/11/23 11:10:39;;;;;;;18.43;16.73;;;13.60;99.90;;;;;;5047057;28;20459;-70
2022/11/23 11:13:40;;;;;;;18.00;16.43;;;13.40;99.90;;;;;;5041328;28;20483;-71
2022/11/23 11:16:18;;;;;;;19.70;16.97;;;13.40;99.90;;;;;;5010562;28;21034;-70
2022/11/23 11:18:44;;;;;;;18.67;17.10;;;12.70;99.90;;;;;;5047988;28;20475;-72
2022/11/23 11:21:19;;;;;;;18.47;16.67;;;12.00;99.90;;;;;;5040268;28;20471;-68
2022/11/23 11:23:52;;;;;;;18.50;16.80;;;11.80;99.90;;;;;;5046397;28;20468;-69
2022/11/23 11:26:22;;;;;;;20.83;17.00;;;11.70;99.90;;;;;;5035463;28;20458;-70
2022/11/23 11:28:52;;;;;;;18.40;16.90;;;11.80;99.90;;;;;;5043005;28;20460;-70
2022/11/23 11:31:33;;;;;;;17.43;16.00;;;11.90;99.90;;;;;;5039442;28;20943;-69
2022/11/23 11:34:11;;;;;;;16.60;15.33;;;11.80;99.90;;;;;;5037097;28;20479;-69
2022/11/23 11:36:47;;;;;;;17.70;16.10;;;11.90;99.90;;;;;;5037415;28;20464;-70
2022/11/23 11:39:20;;;;;;;17.27;15.80;;;11.80;99.90;;;;;;5039570;28;20975;-69
2022/11/23 11:41:51;;;;;;;18.53;16.90;;;11.70;99.90;;;;;;5039536;28;20463;-69
2022/11/23 11:44:21;;;;;;;17.80;16.03;;;11.70;99.90;;;;;;5038927;28;20483;-69
2022/11/23 11:46:54;;;;;;;17.90;16.20;;;11.90;99.90;;;;;;5043314;28;20958;-69
2022/11/23 11:49:25;;;;;;;17.83;16.30;;;11.70;99.90;;;;;;5044038;28;20464;-70
2022/11/23 11:51:55;;;;;;;17.10;15.80;;;11.70;99.90;;;;;;5044248;28;20542;-69
2022/11/23 11:54:29;;;;;;;18.83;17.00;;;11.90;99.90;;;;;;5041843;28;20495;-69
2022/11/23 11:57:03;;;;;;;17.60;16.23;;;12.20;99.90;;;;;;5046836;28;20528;-72
2022/11/23 11:59:41;;;;;;;19.17;17.10;;;12.30;99.90;;;;;;5044608;28;20460;-69
2022/11/23 12:02:18;;;;;;;17.17;15.63;;;12.30;99.90;;;;;;5037522;28;21039;-69
2022/11/23 12:04:54;;;;;;;17.20;15.93;;;12.00;99.90;;;;;;5042682;28;21010;-69
2022/11/23 12:07:28;;;;;;;18.47;16.30;;;11.90;99.90;;;;;;5058852;28;20463;-69
2022/11/23 12:10:04;;;;;;;16.90;15.60;;;11.80;99.90;;;;;;5060369;28;20543;-72
2022/11/23 12:12:35;;;;;;;21.10;15.60;;;11.90;99.90;;;;;;5054392;28;20467;-69
2022/11/23 12:15:03;;;;;;;17.63;16.50;;;12.00;99.90;;;;;;5051654;28;20502;-69
2022/11/23 12:17:59;;;;;;;17.70;16.00;;;12.00;99.90;;;;;;5052328;28;20452;-70
2022/11/23 12:20:32;;;;;;;17.10;15.90;;;12.50;99.90;;;;;;5053844;28;20450;-69
2022/11/23 12:23:09;;;;;;;17.50;15.83;;;12.60;99.90;;;;;;5061374;28;20466;-71
2022/11/23 12:25:38;;;;;;;17.83;16.43;;;13.10;99.90;;;;;;5053416;28;20458;-69
2022/11/23 12:28:32;;;;;;;16.33;15.20;;;13.50;99.90;;;;;;5057529;28;20463;-72
2022/11/23 12:31:06;;;;;;;17.03;15.63;;;14.10;99.90;;;;;;5057988;28;20466;-70
2022/11/23 12:33:52;;;;;;;17.10;15.67;;;14.10;99.90;;;;;;5055489;28;21143;-70
2022/11/23 12:36:32;;;;;;;17.40;15.93;;;14.50;99.90;;;;;;5058746;28;20494;-71
2022/11/23 12:39:10;;;;;;;16.43;15.10;;;14.70;99.90;;;;;;5057801;28;20471;-69
2022/11/23 12:41:44;;;;;;;18.40;16.77;;;14.80;99.90;;;;;;5058869;28;20575;-71
2022/11/23 12:44:44;;;;;;;28.77;17.37;;;15.00;99.90;;;;;;5058837;28;20478;-70
2022/11/23 12:47:23;;;;;;;16.97;15.57;;;15.10;99.90;;;;;;5053648;28;20461;-68
2022/11/23 12:49:54;;;;;;;16.90;15.70;;;14.90;99.90;;;;;;5062374;28;20549;-69